Time;durP1;ratioP1;P1;durP2;ratioP2;P2;SDS_P1;SDS_P2;PMS_P1;PMS_P2;Temp;Humidity;BMP_temperature;BMP_pressure;BME280_temperature;BME280_humidity;BME280_pressure;Samples;Min_cycle;Max_cycle;Signal;HPM_P1;HPM_P2
2023/07/08 00:00:25;;;;;;;11.07;9.97;;;;;;;22.94;100.00;101475.13;2073318;28;20177;-60
2023/07/08 00:01:25;;;;;;;12.43;10.77;;;;;;;22.92;100.00;101476.91;2080804;28;20188;-61
2023/07/08 00:02:25;;;;;;;11.53;10.23;;;;;;;22.86;100.00;101476.03;2081034;28;20188;-61
2023/07/08 00:03:26;;;;;;;13.73;10.83;;;;;;;22.84;100.00;101476.56;2080609;28;20220;-61
2023/07/08 00:04:26;;;;;;;12.27;10.17;;;;;;;22.84;100.00;101482.19;2080625;28;20204;-61
2023/07/08 00:05:27;;;;;;;11.50;10.40;;;;;;;22.80;100.00;101475.19;2081144;28;20444;-61
2023/07/08 00:06:28;;;;;;;11.67;10.53;;;;;;;22.73;100.00;101472.81;2081399;28;20200;-61
2023/07/08 00:07:28;;;;;;;11.17;10.07;;;;;;;22.72;100.00;101482.56;2081281;28;20169;-61
2023/07/08 00:08:28;;;;;;;11.40;10.30;;;;;;;22.73;100.00;101479.22;2081431;28;20599;-61
2023/07/08 00:09:30;;;;;;;11.47;10.37;;;;;;;22.67;100.00;101483.28;2080766;28;20251;-61
2023/07/08 00:10:30;;;;;;;11.47;10.27;;;;;;;22.70;100.00;101483.06;2081286;28;20181;-61
2023/07/08 00:11:31;;;;;;;11.77;10.67;;;;;;;22.74;100.00;101485.66;2081360;28;20196;-62
2023/07/08 00:12:31;;;;;;;12.17;10.37;;;;;;;22.74;100.00;101480.81;2081007;28;20260;-62
2023/07/08 00:13:31;;;;;;;11.87;10.67;;;;;;;22.68;100.00;101479.94;2088715;28;20206;-61
2023/07/08 00:14:32;;;;;;;11.07;9.97;;;;;;;22.29;100.00;101412.91;2088682;28;20181;-61
2023/07/08 00:15:32;;;;;;;10.90;9.77;;;;;;;22.74;100.00;101475.16;2081361;28;20284;-61
2023/07/08 00:16:34;;;;;;;13.00;9.93;;;;;;;22.77;100.00;101471.31;2081330;28;20181;-61
2023/07/08 00:17:35;;;;;;;11.13;9.93;;;;;;;22.76;100.00;101478.25;2081387;28;20267;-60
2023/07/08 00:18:35;;;;;;;11.10;10.03;;;;;;;22.76;100.00;101468.97;2081234;28;20189;-60
2023/07/08 00:19:36;;;;;;;11.60;9.93;;;;;;;22.76;100.00;101466.94;2079870;28;20220;-63
2023/07/08 00:20:39;;;;;;;12.60;9.97;;;;;;;22.72;100.00;101462.78;2080220;28;20201;-63
2023/07/08 00:21:40;;;;;;;11.20;10.03;;;;;;;22.58;100.00;101452.34;2081322;28;20173;-63
2023/07/08 00:22:41;;;;;;;10.60;9.67;;;;;;;22.30;100.00;101412.41;2080865;28;20203;-61
2023/07/08 00:23:49;;;;;;;12.90;10.03;;;;;;;22.69;100.00;101461.72;2081232;28;20181;-61
2023/07/08 00:24:49;;;;;;;10.60;9.47;;;;;;;22.70;100.00;101462.50;2081137;28;20193;-61
2023/07/08 00:25:49;;;;;;;10.70;9.60;;;;;;;22.72;100.00;101462.78;2081198;28;20174;-61
2023/07/08 00:26:50;;;;;;;10.27;9.20;;;;;;;22.49;100.00;101446.81;2081368;28;20256;-61
2023/07/08 00:27:50;;;;;;;10.97;9.77;;;;;;;22.60;100.00;101458.25;2081088;28;20186;-60
2023/07/08 00:28:52;;;;;;;11.47;10.30;;;;;;;22.59;100.00;101463.16;2080627;28;20197;-60
2023/07/08 00:29:52;;;;;;;11.67;10.50;;;;;;;22.60;100.00;101463.91;2080421;28;20278;-61
2023/07/08 00:30:53;;;;;;;11.23;10.03;;;;;;;22.56;100.00;101463.38;2080500;28;20246;-62
2023/07/08 00:31:54;;;;;;;11.03;9.97;;;;;;;22.57;100.00;101460.03;2080997;28;20681;-61
2023/07/08 00:32:56;;;;;;;10.93;9.73;;;;;;;22.28;100.00;101426.28;2081040;28;20662;-61
2023/07/08 00:33:56;;;;;;;12.90;10.20;;;;;;;22.53;100.00;101467.16;2079782;28;20392;-60
2023/07/08 00:34:56;;;;;;;12.17;10.33;;;;;;;22.46;100.00;101445.78;2073103;28;20174;-60
2023/07/08 00:35:57;;;;;;;11.77;10.00;;;;;;;22.51;100.00;101452.78;2081318;28;20185;-60
2023/07/08 00:36:57;;;;;;;11.23;9.93;;;;;;;22.51;100.00;101459.19;2081084;28;20703;-61
2023/07/08 00:38:01;;;;;;;10.97;9.97;;;;;;;22.52;100.00;101457.16;2081157;28;20632;-61
2023/07/08 00:39:02;;;;;;;12.83;10.33;;;;;;;22.53;100.00;101464.34;2080452;28;20680;-60
2023/07/08 00:40:15;;;;;;;10.37;9.30;;;;;;;22.00;100.00;101382.75;2085162;28;20180;-61
2023/07/08 00:41:29;;;;;;;10.63;9.63;;;;;;;22.54;100.00;101455.38;2077504;28;20690;-61
2023/07/08 00:42:29;;;;;;;10.63;9.53;;;;;;;22.24;100.00;101408.75;2080622;28;20682;-61
2023/07/08 00:43:36;;;;;;;10.97;10.03;;;;;;;22.54;100.00;101455.38;2081066;28;20192;-61
2023/07/08 00:44:37;;;;;;;10.10;9.10;;;;;;;22.25;100.00;101410.31;2080815;28;20223;-60
2023/07/08 00:45:44;;;;;;;10.17;9.13;;;;;;;22.58;100.00;101450.31;2081046;28;20201;-61
2023/07/08 00:46:56;;;;;;;11.50;9.07;;;;;;;22.57;100.00;101453.63;2081039;28;20165;-61
2023/07/08 00:48:03;;;;;;;10.83;9.73;;;;;;;22.46;100.00;101437.28;2080851;28;20197;-60
2023/07/08 00:49:07;;;;;;;10.80;9.47;;;;;;;22.53;100.00;101442.53;2080397;28;20195;-61
2023/07/08 00:50:11;;;;;;;10.33;9.30;;;;;;;22.48;100.00;101440.41;2080940;28;20607;-61
2023/07/08 00:51:12;;;;;;;9.40;8.50;;;;;;;22.51;100.00;101439.41;2081067;28;20606;-61
2023/07/08 00:52:30;;;;;;;11.40;9.40;;;;;;;22.58;100.00;101443.88;2080796;28;20181;-61
2023/07/08 00:53:33;;;;;;;10.13;9.17;;;;;;;22.58;100.00;101444.66;2080967;28;20191;-61
2023/07/08 00:54:33;;;;;;;10.23;9.23;;;;;;;22.54;100.00;101443.28;2081076;28;20194;-63
2023/07/08 00:55:33;;;;;;;10.60;9.50;;;;;;;22.53;100.00;101439.72;2081182;28;20209;-61
2023/07/08 00:56:41;;;;;;;9.93;8.93;;;;;;;22.57;100.00;101437.44;2080933;28;20189;-60
2023/07/08 00:57:45;;;;;;;9.67;8.50;;;;;;;22.41;100.00;101415.38;2080986;28;20268;-61
2023/07/08 00:59:01;;;;;;;10.23;9.17;;;;;;;22.59;100.00;101439.75;2080374;28;20200;-61
2023/07/08 01:00:08;;;;;;;9.63;8.63;;;;;;;22.53;100.00;101439.72;2080912;28;20180;-61
2023/07/08 01:01:10;;;;;;;11.63;9.30;;;;;;;22.60;100.00;101444.13;2081057;28;20188;-61
2023/07/08 01:02:14;;;;;;;10.00;9.00;;;;;;;22.26;100.00;101388.50;2080608;28;20188;-63
2023/07/08 01:03:14;;;;;;;9.93;8.97;;;;;;;22.50;100.00;101426.56;2080884;28;20189;-61
2023/07/08 01:04:24;;;;;;;9.90;8.90;;;;;;;22.63;100.00;101448.81;2080800;28;20192;-61
2023/07/08 01:05:27;;;;;;;9.50;8.50;;;;;;;22.48;100.00;101439.63;2081011;28;20188;-61
2023/07/08 01:06:32;;;;;;;9.27;8.30;;;;;;;22.47;100.00;101424.72;2080870;28;20195;-61
2023/07/08 01:07:34;;;;;;;9.80;8.70;;;;;;;22.62;100.00;101456.50;2081055;28;20188;-61
2023/07/08 01:08:35;;;;;;;9.73;8.73;;;;;;;22.64;100.00;101458.81;2080697;28;20650;-61
2023/07/08 01:09:45;;;;;;;9.20;8.30;;;;;;;22.49;100.00;101433.50;2080223;28;20633;-61
2023/07/08 01:10:50;;;;;;;10.27;8.90;;;;;;;22.66;100.00;101457.06;2080677;28;20635;-61
2023/07/08 01:11:50;;;;;;;8.63;7.80;;;;;;;22.67;100.00;101455.78;2080504;28;20169;-61
2023/07/08 01:12:55;;;;;;;10.03;8.80;;;;;;;22.67;100.00;101458.59;2080867;28;20207;-61
2023/07/08 01:13:58;;;;;;;8.80;7.87;;;;;;;22.67;100.00;101444.47;2081030;28;20622;-61
2023/07/08 01:15:02;;;;;;;11.83;7.73;;;;;;;22.07;100.00;101356.97;2080952;28;20177;-61
2023/07/08 01:16:03;;;;;;;8.07;7.33;;;;;;;22.64;100.00;101450.34;2080786;28;20690;-61
2023/07/08 01:17:04;;;;;;;10.60;7.70;;;;;;;22.62;100.00;101444.44;2080784;28;20255;-60
2023/07/08 01:18:05;;;;;;;10.17;7.67;;;;;;;22.62;100.00;101453.66;2086264;28;20184;-61
2023/07/08 01:19:13;;;;;;;7.90;7.10;;;;;;;22.59;100.00;101432.06;2084076;28;20553;-61
2023/07/08 01:20:14;;;;;;;9.30;7.03;;;;;;;22.61;100.00;101445.72;2080900;28;20268;-60
2023/07/08 01:21:33;;;;;;;9.43;7.80;;;;;;;22.63;100.00;101435.44;2080597;28;20181;-61
2023/07/08 01:22:37;;;;;;;8.13;6.90;;;;;;;22.63;100.00;101438.25;2080447;28;20666;-61
2023/07/08 01:23:37;;;;;;;9.20;7.07;;;;;;;22.64;100.00;101437.00;2080831;28;20189;-61
2023/07/08 01:24:42;;;;;;;8.27;7.47;;;;;;;22.61;100.00;101435.16;2080558;28;20212;-61
2023/07/08 01:25:45;;;;;;;9.47;6.87;;;;;;;22.60;100.00;101435.66;2080809;28;20173;-60
2023/07/08 01:26:46;;;;;;;9.50;7.17;;;;;;;22.61;100.00;101438.00;2080595;28;20223;-61
2023/07/08 01:27:49;;;;;;;8.53;6.73;;;;;;;22.61;100.00;101428.75;2080793;28;20231;-60
2023/07/08 01:28:49;;;;;;;7.70;6.73;;;;;;;22.58;100.00;101436.19;2080428;28;20188;-60
2023/07/08 01:29:50;;;;;;;8.37;7.27;;;;;;;22.53;100.00;101439.72;2080837;28;20185;-61
2023/07/08 01:30:51;;;;;;;7.43;6.70;;;;;;;22.22;100.00;101385.88;2080702;28;20192;-61
2023/07/08 01:31:54;;;;;;;7.43;6.70;;;;;;;22.52;100.00;101437.38;2080475;28;20793;-61
2023/07/08 01:33:17;;;;;;;15.33;7.07;;;;;;;21.91;100.00;101345.44;2080729;28;20220;-61
2023/07/08 01:34:18;;;;;;;8.20;6.93;;;;;;;22.53;100.00;101444.56;2074218;28;20190;-60
2023/07/08 01:35:19;;;;;;;7.43;6.73;;;;;;;22.52;100.00;101445.84;2080040;28;20203;-63
2023/07/08 01:36:21;;;;;;;8.63;6.73;;;;;;;22.47;100.00;101444.50;2080102;28;20741;-64
2023/07/08 01:37:21;;;;;;;10.80;6.67;;;;;;;22.46;100.00;101434.47;2076177;28;20349;-64
2023/07/08 01:38:26;;;;;;;7.87;6.77;;;;;;;22.48;100.00;101431.94;2078143;28;20192;-63
2023/07/08 01:39:29;;;;;;;8.90;6.63;;;;;;;22.49;100.00;101441.97;2073972;28;20252;-64
2023/07/08 01:40:34;;;;;;;9.00;6.53;;;;;;;22.49;100.00;101439.16;2080304;28;20650;-60
2023/07/08 01:41:34;;;;;;;8.90;6.13;;;;;;;22.18;100.00;101390.19;2080725;28;20264;-61
2023/07/08 01:42:34;;;;;;;7.63;6.70;;;;;;;22.02;100.00;101359.69;2080483;28;20191;-61
2023/07/08 01:43:35;;;;;;;9.97;6.50;;;;;;;22.48;100.00;101443.25;2073002;28;20181;-61
2023/07/08 01:44:36;;;;;;;8.77;6.73;;;;;;;22.53;100.00;101442.53;2078714;28;20220;-61
2023/07/08 01:45:40;;;;;;;9.30;6.43;;;;;;;22.51;100.00;101436.59;2075093;28;20177;-61
2023/07/08 01:46:41;;;;;;;7.53;6.70;;;;;;;22.56;100.00;101449.25;2077219;28;20680;-61
2023/07/08 01:47:45;;;;;;;11.67;6.60;;;;;;;22.57;100.00;101448.72;2080806;28;20554;-61
2023/07/08 01:48:49;;;;;;;8.63;6.30;;;;;;;22.38;100.00;101421.25;2080022;28;20242;-61
2023/07/08 01:49:50;;;;;;;10.37;6.17;;;;;;;22.55;100.00;101453.31;2078197;28;20605;-61
2023/07/08 01:51:00;;;;;;;7.77;6.50;;;;;;;22.52;100.00;101446.59;2073635;28;20244;-61
2023/07/08 01:52:01;;;;;;;7.93;6.10;;;;;;;22.43;100.00;101432.63;2078771;28;20667;-60
2023/07/08 01:53:08;;;;;;;7.33;6.53;;;;;;;22.43;100.00;101432.63;2072756;28;20534;-61
2023/07/08 01:54:09;;;;;;;7.20;6.40;;;;;;;22.51;100.00;101445.06;2080382;28;20184;-63
2023/07/08 01:55:09;;;;;;;6.93;6.23;;;;;;;22.49;100.00;101447.63;2072657;28;20177;-63
2023/07/08 01:56:12;;;;;;;7.40;6.03;;;;;;;22.48;100.00;101454.53;2079958;28;20217;-61
2023/07/08 01:57:13;;;;;;;8.93;6.40;;;;;;;22.50;100.00;101459.66;2073924;28;20188;-61
2023/07/08 01:58:13;;;;;;;10.27;7.53;;;;;;;22.00;100.00;101384.81;2079975;28;20203;-61
2023/07/08 01:59:14;;;;;;;9.07;6.83;;;;;;;22.49;100.00;101456.09;2079368;28;20669;-61
2023/07/08 02:00:14;;;;;;;8.87;6.80;;;;;;;22.50;100.00;101454.81;2075593;28;20201;-61
2023/07/08 02:01:15;;;;;;;7.93;6.13;;;;;;;22.47;100.00;101455.03;2078643;28;20169;-61
2023/07/08 02:02:15;;;;;;;10.47;6.70;;;;;;;22.48;100.00;101456.56;2073077;28;20173;-63
2023/07/08 02:03:15;;;;;;;8.63;6.70;;;;;;;22.48;100.00;101448.88;2080776;28;20184;-63
2023/07/08 02:04:16;;;;;;;9.80;6.73;;;;;;;22.47;100.00;101452.22;2072612;28;20197;-64
2023/07/08 02:05:16;;;;;;;11.70;6.70;;;;;;;22.44;100.00;101451.16;2079348;28;20268;-61
2023/07/08 02:06:17;;;;;;;9.53;6.70;;;;;;;22.44;100.00;101453.97;2080529;28;20185;-61
2023/07/08 02:07:17;;;;;;;7.03;6.33;;;;;;;22.40;100.00;101458.22;2080535;28;20645;-61
2023/07/08 02:08:18;;;;;;;7.07;6.13;;;;;;;22.31;100.00;101447.84;2080543;28;20565;-61
2023/07/08 02:09:19;;;;;;;6.20;5.60;;;;;;;21.92;100.00;101380.84;2079972;28;20173;-61
2023/07/08 02:10:19;;;;;;;8.00;5.87;;;;;;;22.32;100.00;101451.47;2080491;28;20173;-63
2023/07/08 02:11:20;;;;;;;10.33;6.10;;;;;;;22.34;100.00;101451.75;2080450;28;20181;-63
2023/07/08 02:12:20;;;;;;;13.13;5.90;;;;;;;22.31;100.00;101450.69;2080554;28;20181;-63
2023/07/08 02:13:22;;;;;;;7.07;5.90;;;;;;;22.31;100.00;101455.56;2080392;28;20185;-63
2023/07/08 02:14:22;;;;;;;7.73;5.90;;;;;;;22.26;100.00;101453.44;2080156;28;20538;-62
2023/07/08 02:15:23;;;;;;;7.60;5.33;;;;;;;21.98;100.00;101412.75;2080394;28;20216;-61
2023/07/08 02:16:23;;;;;;;8.33;5.83;;;;;;;22.16;100.00;101443.56;2080590;28;20185;-61
2023/07/08 02:17:24;;;;;;;7.03;5.80;;;;;;;22.25;100.00;101455.47;2080630;28;20177;-61
2023/07/08 02:18:24;;;;;;;7.47;5.90;;;;;;;22.24;100.00;101451.09;2080468;28;20169;-61
2023/07/08 02:19:25;;;;;;;8.13;6.53;;;;;;;22.26;100.00;101464.75;2079963;28;20259;-61
2023/07/08 02:20:26;;;;;;;8.80;6.00;;;;;;;22.28;100.00;101454.50;2080544;28;20177;-61
2023/07/08 02:21:30;;;;;;;9.60;6.07;;;;;;;22.28;100.00;101454.50;2080200;28;20224;-61
2023/07/08 02:22:31;;;;;;;6.73;5.90;;;;;;;22.20;100.00;101456.19;2080127;28;20185;-61
2023/07/08 02:23:31;;;;;;;8.47;5.63;;;;;;;22.23;100.00;101460.06;2080728;28;20193;-62
2023/07/08 02:24:31;;;;;;;8.53;6.10;;;;;;;22.21;100.00;101456.97;2080377;28;20212;-61
2023/07/08 02:25:32;;;;;;;7.23;5.87;;;;;;;22.10;100.00;101456.81;2080674;28;20228;-60
2023/07/08 02:26:32;;;;;;;7.43;6.10;;;;;;;22.16;100.00;101458.44;2080407;28;20196;-61
2023/07/08 02:27:33;;;;;;;7.00;5.93;;;;;;;22.13;100.00;101456.59;2080455;28;20185;-61
2023/07/08 02:28:33;;;;;;;7.77;5.90;;;;;;;22.11;100.00;101461.19;2080245;28;20185;-61
2023/07/08 02:29:33;;;;;;;6.97;6.20;;;;;;;21.94;100.00;101437.56;2080339;28;20694;-61
2023/07/08 02:30:34;;;;;;;9.07;6.23;;;;;;;22.03;100.00;101462.84;2073250;28;20545;-61
2023/07/08 02:31:34;;;;;;;7.10;6.00;;;;;;;22.01;100.00;101465.41;2078663;28;20592;-62
2023/07/08 02:32:38;;;;;;;8.27;5.50;;;;;;;21.99;100.00;101456.63;2080257;28;20196;-60
2023/07/08 02:33:39;;;;;;;7.97;6.03;;;;;;;21.96;100.00;101469.69;2080372;28;20692;-61
2023/07/08 02:34:39;;;;;;;7.53;5.83;;;;;;;21.97;100.00;101465.63;2080300;28;20189;-61
2023/07/08 02:35:40;;;;;;;6.47;5.63;;;;;;;21.87;100.00;101463.38;2080497;28;20254;-61
2023/07/08 02:36:40;;;;;;;8.47;6.17;;;;;;;21.95;100.00;101473.78;2080343;28;20197;-62
2023/07/08 02:37:41;;;;;;;7.73;5.87;;;;;;;21.83;100.00;101455.13;2080802;28;20169;-60
2023/07/08 02:38:41;;;;;;;8.33;6.03;;;;;;;21.90;100.00;101473.72;2079974;28;20192;-60
2023/07/08 02:39:42;;;;;;;8.10;6.20;;;;;;;21.94;100.00;101482.72;2080516;28;20185;-61
2023/07/08 02:40:43;;;;;;;8.23;5.87;;;;;;;21.96;100.00;101474.56;2074785;28;20186;-61
2023/07/08 02:41:43;;;;;;;7.20;5.57;;;;;;;21.54;100.00;101414.91;2077054;28;20193;-61
2023/07/08 02:42:43;;;;;;;7.10;5.33;;;;;;;21.95;100.00;101478.66;2080014;28;20192;-61
2023/07/08 02:43:44;;;;;;;6.80;5.23;;;;;;;21.96;100.00;101478.16;2080156;28;20256;-62
2023/07/08 02:44:44;;;;;;;5.90;5.30;;;;;;;21.96;100.00;101478.16;2080343;28;20193;-61
2023/07/08 02:45:44;;;;;;;7.13;5.60;;;;;;;21.97;100.00;101491.00;2080462;28;20564;-61
2023/07/08 02:46:45;;;;;;;9.97;6.27;;;;;;;21.97;100.00;101488.19;2080679;28;20580;-61
2023/07/08 02:47:45;;;;;;;6.93;5.70;;;;;;;21.98;100.00;101488.94;2080752;28;20679;-61
2023/07/08 02:48:46;;;;;;;8.30;6.13;;;;;;;21.96;100.00;101495.06;2079709;28;20551;-61
2023/07/08 02:49:46;;;;;;;6.50;5.47;;;;;;;21.95;100.00;101490.72;2080429;28;20565;-60
2023/07/08 02:50:46;;;;;;;7.30;5.57;;;;;;;21.90;100.00;101494.22;2080289;28;20212;-60
2023/07/08 02:51:47;;;;;;;9.00;5.03;;;;;;;21.93;100.00;101501.72;2080418;28;20224;-61
2023/07/08 02:52:47;;;;;;;9.87;5.80;;;;;;;21.94;100.00;101497.63;2080677;28;20173;-61
2023/07/08 02:53:50;;;;;;;8.20;5.90;;;;;;;21.90;100.00;101499.09;2081843;28;20169;-61
2023/07/08 02:54:50;;;;;;;12.73;6.43;;;;;;;21.92;100.00;101500.19;2082178;28;20177;-61
2023/07/08 02:55:51;;;;;;;10.40;6.37;;;;;;;21.90;100.00;101499.88;2081878;28;20177;-61
2023/07/08 02:56:51;;;;;;;13.30;7.20;;;;;;;21.92;100.00;101500.19;2081907;28;20299;-61
2023/07/08 02:57:52;;;;;;;8.73;5.43;;;;;;;21.90;100.00;101504.75;2081820;28;20192;-61
2023/07/08 02:58:53;;;;;;;14.50;6.67;;;;;;;21.93;100.00;101506.56;2081349;28;20185;-61
2023/07/08 02:59:54;;;;;;;7.90;6.20;;;;;;;21.94;100.00;101505.31;2081818;28;20196;-61
2023/07/08 03:00:56;;;;;;;7.50;5.60;;;;;;;21.95;100.00;101510.47;2081715;28;20211;-61
2023/07/08 03:01:56;;;;;;;7.40;5.50;;;;;;;21.30;100.00;101417.06;2081499;28;20610;-60
2023/07/08 03:02:56;;;;;;;8.97;6.00;;;;;;;21.95;100.00;101510.47;2081702;28;20239;-61
2023/07/08 03:04:00;;;;;;;10.07;5.80;;;;;;;21.98;100.00;101508.72;2081926;28;20205;-61
2023/07/08 03:05:00;;;;;;;6.47;4.97;;;;;;;21.97;100.00;101512.81;2081665;28;20205;-61
2023/07/08 03:06:07;;;;;;;7.67;5.17;;;;;;;21.66;100.00;101464.56;2082015;28;20654;-61
2023/07/08 03:07:11;;;;;;;6.73;5.00;;;;;;;21.98;100.00;101517.19;2081821;28;20186;-61
2023/07/08 03:08:11;;;;;;;5.30;4.80;;;;;;;21.92;100.00;101514.28;2081947;28;20189;-61
2023/07/08 03:09:13;;;;;;;6.57;5.00;;;;;;;21.95;100.00;101518.16;2081239;28;20238;-61
2023/07/08 03:10:13;;;;;;;8.33;4.90;;;;;;;21.35;100.00;101434.03;2080894;28;20251;-61
2023/07/08 03:11:14;;;;;;;6.57;5.23;;;;;;;21.87;100.00;101519.81;2078794;28;20661;-61
2023/07/08 03:12:14;;;;;;;8.13;5.47;;;;;;;21.93;100.00;101521.47;2074442;28;20182;-61
2023/07/08 03:13:15;;;;;;;9.03;5.23;;;;;;;21.90;100.00;101519.63;2081784;28;20526;-61
2023/07/08 03:14:15;;;;;;;7.80;5.83;;;;;;;21.91;100.00;101526.06;2073759;28;20201;-61
2023/07/08 03:15:15;;;;;;;5.90;5.20;;;;;;;21.85;100.00;101523.13;2081561;28;20200;-60
2023/07/08 03:16:16;;;;;;;5.43;4.90;;;;;;;21.87;100.00;101517.00;2075848;28;20557;-61
2023/07/08 03:17:17;;;;;;;7.47;5.80;;;;;;;21.87;100.00;101523.44;2078396;28;20683;-61
2023/07/08 03:18:18;;;;;;;8.00;5.20;;;;;;;21.38;100.00;101444.38;2077777;28;20174;-61
2023/07/08 03:19:19;;;;;;;7.00;5.33;;;;;;;21.92;100.00;101524.78;2075801;28;20203;-61
2023/07/08 03:20:21;;;;;;;6.67;5.07;;;;;;;21.93;100.00;101527.13;2080046;28;20178;-61
2023/07/08 03:21:21;;;;;;;8.70;5.77;;;;;;;21.92;100.00;101521.97;2073899;28;20200;-61
2023/07/08 03:22:21;;;;;;;7.77;5.00;;;;;;;21.89;100.00;101520.91;2081602;28;20177;-61
2023/07/08 03:23:23;;;;;;;8.27;5.00;;;;;;;21.78;100.00;101519.94;2074255;28;20276;-61
2023/07/08 03:24:24;;;;;;;5.70;4.63;;;;;;;21.94;100.00;101531.50;2080094;28;20205;-60
2023/07/08 03:25:25;;;;;;;7.67;5.50;;;;;;;21.96;100.00;101522.53;2076144;28;20341;-61
2023/07/08 03:26:26;;;;;;;7.77;5.40;;;;;;;21.99;100.00;101525.16;2077957;28;20177;-61
2023/07/08 03:27:26;;;;;;;7.20;5.07;;;;;;;21.97;100.00;101530.53;2078207;28;20243;-61
2023/07/08 03:28:27;;;;;;;8.40;4.83;;;;;;;22.00;100.00;101525.94;2075898;28;20173;-61
2023/07/08 03:29:27;;;;;;;8.77;5.30;;;;;;;22.00;100.00;101523.88;2080046;28;20252;-61
2023/07/08 03:30:28;;;;;;;9.47;5.37;;;;;;;22.03;100.00;101528.56;2073462;28;20181;-61
2023/07/08 03:31:28;;;;;;;10.33;5.00;;;;;;;22.03;100.00;101528.56;2081841;28;20619;-61
2023/07/08 03:32:29;;;;;;;7.97;5.10;;;;;;;22.03;100.00;101528.56;2074304;28;20213;-60
2023/07/08 03:33:29;;;;;;;7.40;5.23;;;;;;;22.01;100.00;101524.69;2079260;28;20241;-61
2023/07/08 03:34:29;;;;;;;9.37;5.67;;;;;;;22.04;100.00;101524.47;2081715;28;20553;-61
2023/07/08 03:35:30;;;;;;;6.97;5.03;;;;;;;22.03;100.00;101527.78;2081733;28;20563;-61
2023/07/08 03:36:30;;;;;;;7.60;4.60;;;;;;;22.03;100.00;101531.38;2079047;28;20525;-62
2023/07/08 03:37:31;;;;;;;7.77;4.60;;;;;;;22.01;100.00;101533.91;2074912;28;20272;-61
2023/07/08 03:38:31;;;;;;;8.63;5.17;;;;;;;21.96;100.00;101534.59;2081143;28;20175;-61
2023/07/08 03:39:32;;;;;;;9.67;5.60;;;;;;;22.03;100.00;101533.41;2072996;28;20182;-61
2023/07/08 03:40:32;;;;;;;5.83;4.80;;;;;;;21.98;100.00;101525.63;2080480;28;20287;-60
2023/07/08 03:41:33;;;;;;;7.47;4.60;;;;;;;22.03;100.00;101530.59;2081674;28;20240;-61
2023/07/08 03:42:33;;;;;;;6.63;4.93;;;;;;;22.05;100.00;101533.72;2081092;28;20599;-61
2023/07/08 03:43:34;;;;;;;7.87;5.20;;;;;;;22.01;100.00;101542.38;2077715;28;20276;-60
2023/07/08 03:44:34;;;;;;;7.67;4.97;;;;;;;22.00;100.00;101540.06;2075932;28;20399;-61
2023/07/08 03:45:35;;;;;;;7.87;5.20;;;;;;;21.92;100.00;101522.75;2079814;28;20192;-61
2023/07/08 03:46:35;;;;;;;6.53;4.90;;;;;;;22.01;100.00;101531.09;2073781;28;20170;-61
2023/07/08 03:47:36;;;;;;;5.57;4.90;;;;;;;21.65;100.00;101463.78;2089311;28;20211;-61
2023/07/08 03:48:37;;;;;;;6.60;4.67;;;;;;;22.11;100.00;101537.41;2081195;28;20192;-61
2023/07/08 03:49:37;;;;;;;5.90;4.80;;;;;;;22.09;100.00;101532.25;2085466;28;20185;-61
2023/07/08 03:50:38;;;;;;;8.30;4.40;;;;;;;22.16;100.00;101533.91;2089034;28;20662;-61
2023/07/08 03:51:41;;;;;;;6.90;4.73;;;;;;;22.20;100.00;101535.22;2081510;28;20685;-61
2023/07/08 03:52:41;;;;;;;5.30;4.80;;;;;;;21.44;100.00;101421.91;2077518;28;20213;-61
2023/07/08 03:53:42;;;;;;;9.40;5.00;;;;;;;22.17;100.00;101544.69;2075769;28;20170;-61
2023/07/08 03:54:42;;;;;;;6.30;4.30;;;;;;;21.74;100.00;101471.41;2081272;28;20257;-61
2023/07/08 03:55:43;;;;;;;5.37;4.67;;;;;;;22.19;100.00;101544.97;2081475;28;20651;-61
2023/07/08 03:56:44;;;;;;;6.20;4.37;;;;;;;22.19;100.00;101530.88;2081546;28;20169;-61
2023/07/08 03:57:44;;;;;;;6.17;4.60;;;;;;;22.19;100.00;101530.06;2081502;28;20193;-61
2023/07/08 03:58:45;;;;;;;7.97;4.90;;;;;;;21.80;100.00;101478.66;2080654;28;20184;-61
2023/07/08 03:59:46;;;;;;;6.77;4.97;;;;;;;21.59;100.00;101442.41;2081430;28;20283;-61
2023/07/08 04:00:46;;;;;;;8.23;4.87;;;;;;;22.17;100.00;101530.59;2081119;28;20189;-61
2023/07/08 04:01:47;;;;;;;7.77;5.10;;;;;;;22.23;100.00;101537.09;2081164;28;20181;-61
2023/07/08 04:02:48;;;;;;;6.50;4.60;;;;;;;22.17;100.00;101530.59;2081225;28;20671;-61
2023/07/08 04:03:51;;;;;;;6.27;4.57;;;;;;;22.24;100.00;101544.28;2081311;28;20260;-61
2023/07/08 04:04:51;;;;;;;7.43;4.47;;;;;;;22.26;100.00;101546.63;2081236;28;20200;-61
2023/07/08 04:05:52;;;;;;;6.87;4.70;;;;;;;22.25;100.00;101545.03;2081611;28;20173;-60
2023/07/08 04:06:53;;;;;;;6.67;4.50;;;;;;;22.26;100.00;101538.16;2081376;28;20849;-61
2023/07/08 04:07:55;;;;;;;5.37;4.80;;;;;;;21.59;100.00;101434.72;2081314;28;20196;-61
2023/07/08 04:08:55;;;;;;;7.83;4.53;;;;;;;22.14;100.00;101525.91;2080684;28;20638;-61
2023/07/08 04:09:55;;;;;;;5.87;4.63;;;;;;;22.17;100.00;101533.41;2081262;28;20197;-61
2023/07/08 04:10:56;;;;;;;6.37;4.50;;;;;;;22.19;100.00;101539.34;2081319;28;20184;-61
2023/07/08 04:11:57;;;;;;;5.17;4.30;;;;;;;22.01;100.00;101508.50;2079583;28;20363;-61
2023/07/08 04:12:58;;;;;;;5.93;4.80;;;;;;;22.17;100.00;101539.06;2073752;28;20170;-61
2023/07/08 04:13:58;;;;;;;6.30;4.37;;;;;;;22.14;100.00;101542.84;2081485;28;20439;-61
2023/07/08 04:14:59;;;;;;;7.40;4.43;;;;;;;22.16;100.00;101537.47;2081176;28;20264;-61
2023/07/08 04:16:02;;;;;;;6.00;4.70;;;;;;;22.19;100.00;101533.69;2081263;28;20168;-61
2023/07/08 04:17:02;;;;;;;6.53;4.10;;;;;;;22.20;100.00;101542.91;2088773;28;20207;-61
2023/07/08 04:18:03;;;;;;;7.83;4.73;;;;;;;22.22;100.00;101543.97;2088954;28;20218;-61
2023/07/08 04:19:03;;;;;;;5.50;4.20;;;;;;;21.87;100.00;101480.31;2080730;28;20185;-61
2023/07/08 04:20:04;;;;;;;5.60;4.37;;;;;;;22.08;100.00;101522.22;2081157;28;20185;-61
2023/07/08 04:21:06;;;;;;;7.47;5.03;;;;;;;21.58;100.00;101441.63;2081003;28;20531;-61
2023/07/08 04:22:07;;;;;;;6.73;4.67;;;;;;;22.25;100.00;101547.88;2080740;28;20216;-63
2023/07/08 04:23:08;;;;;;;6.97;4.30;;;;;;;22.20;100.00;101540.88;2081407;28;20169;-63
2023/07/08 04:24:10;;;;;;;4.87;4.20;;;;;;;22.25;100.00;101542.22;2081322;28;20192;-60
2023/07/08 04:25:13;;;;;;;5.40;3.97;;;;;;;22.25;100.00;101543.00;2081170;28;20607;-61
2023/07/08 04:26:14;;;;;;;7.13;4.60;;;;;;;22.26;100.00;101540.97;2081305;28;20208;-61
2023/07/08 04:27:16;;;;;;;7.63;4.30;;;;;;;22.25;100.00;101537.34;2085351;28;20184;-63
2023/07/08 04:28:17;;;;;;;4.77;4.03;;;;;;;22.32;100.00;101542.59;2084735;28;20192;-63
2023/07/08 04:29:19;;;;;;;6.57;4.20;;;;;;;22.34;100.00;101540.06;2074998;28;20443;-63
2023/07/08 04:30:23;;;;;;;4.83;4.13;;;;;;;22.40;100.00;101542.97;2081038;28;20651;-63
2023/07/08 04:31:24;;;;;;;7.53;3.83;;;;;;;22.39;100.00;101536.53;2081184;28;20592;-64
2023/07/08 04:32:24;;;;;;;6.10;4.60;;;;;;;22.35;100.00;101544.44;2080836;28;20177;-63
2023/07/08 04:33:25;;;;;;;6.60;4.03;;;;;;;22.32;100.00;101536.94;2081197;28;20192;-64
2023/07/08 04:34:25;;;;;;;9.27;4.13;;;;;;;22.43;100.00;101539.16;2081096;28;20179;-63
2023/07/08 04:35:26;;;;;;;5.67;4.10;;;;;;;22.48;100.00;101538.50;2081182;28;20665;-64
2023/07/08 04:36:26;;;;;;;10.07;4.63;;;;;;;22.49;100.00;101538.00;2081008;28;20592;-64
2023/07/08 04:37:27;;;;;;;6.37;4.47;;;;;;;22.53;100.00;101537.78;2081081;28;20192;-64
2023/07/08 04:38:27;;;;;;;9.07;4.53;;;;;;;22.50;100.00;101527.47;2081086;28;20381;-64
2023/07/08 04:39:29;;;;;;;7.23;4.53;;;;;;;22.45;100.00;101516.88;2086562;28;20176;-63
2023/07/08 04:40:30;;;;;;;4.93;4.13;;;;;;;22.61;100.00;101539.69;2080664;28;20264;-64
2023/07/08 04:41:31;;;;;;;6.10;4.40;;;;;;;22.28;100.00;101479.91;2081390;28;20231;-64
2023/07/08 04:42:31;;;;;;;6.30;4.10;;;;;;;22.70;100.00;101535.94;2080711;28;20181;-63